Latest Coastal Weather Observations for Eucla

IDW60701

Issued at 11:03 am WST Saturday 5 December 2020 (issued every 10 minutes, with the page automatically refreshed every 10 minutes)

About coastal observations | Map of coastal stations | Coastal observations for WA | Marine services | Other Formats
Station Details ID: 011003 Name: EUCLA Lat: -31.68 Lon: 128.90 Height: 93.1 m
Data from the previous 72 hours. | See also: Recent months at Eucla
Date/Time
WST
Wind Sea
Height
m
Swell Vis
km
Cloud Weather Temp
°C
Press
MSL
hPa
Rain since
9am
mm
Dir  Spd
kts
Gust
kts
Height
m
Period
s
Dir
05/11:00am SSW 17 25 - - - - - - - 20.0 1014.1 0.0
05/10:50am SSW 15 25 - - - - - - - 20.0 1014.1 0.0
05/10:30am SSW 16 25 - - - - - - - 20.4 1014.1 0.0
05/10:00am SSW 16 28 - - - - - - - 20.8 1013.8 0.0
05/09:35am SSW 16 28 - - - - - - - 20.8 1013.7 0.0
05/09:30am SSW 16 24 - - - - - - - 20.3 1013.7 0.0
05/09:06am SW 15 25 - - - - - - - 20.7 1013.5 0.0
05/09:00am SW 16 25 - - - - - - - 20.9 1013.5 2.2
05/08:48am SW 15 25 - - - - - - - 21.2 1013.5 2.2
05/08:30am SW 11 18 - - - - - - - 19.2 1013.7 2.2
05/08:00am SW 12 18 - - - - - - - 19.4 1013.4 2.2
05/07:30am WSW 15 20 - - - - - - - 20.4 1013.2 2.2
05/07:00am SW 13 20 - - - - - - - 19.4 1012.9 2.2
05/06:30am W 10 16 - - - - - - - 18.5 1012.8 2.2
05/06:00am WSW 9 18 - - - - - - - 17.4 1012.4 2.2
05/05:30am W 8 12 - - - - - - - 16.3 1012.3 2.2
05/05:00am W 8 14 - - - - - - - 15.5 1011.9 2.2
05/04:30am WSW 9 15 - - - - - - - 14.6 1011.7 2.2
05/04:00am WSW 9 15 - - - - - - - 14.6 1011.1 2.2
05/03:30am WSW 8 13 - - - - - - - 14.6 1010.8 2.2
05/03:00am WSW 9 14 - - - - - - - 14.6 1010.2 2.2
05/02:30am WSW 10 16 - - - - - - - 14.9 1009.4 2.2
05/02:00am WSW 8 13 - - - - - - - 15.0 1008.9 2.2
05/01:30am WSW 7 10 - - - - - - - 15.3 1008.7 2.2
05/01:00am WSW 7 9 - - - - - - - 15.5 1009.1 2.2
05/12:30am WSW 6 8 - - - - - - - 15.6 1009.4 2.2
05/12:00am SW 6 9 - - - - - - - 16.0 1009.5 2.2
 
Date/Time
WST
Wind Sea
Height
m
Swell Vis
km
Cloud Weather Temp
°C
Press
MSL
hPa
Rain since
9am
mm
Dir  Spd
kts
Gust
kts
Height
m
Period
s
Dir
04/11:30pm SW 8 11 - - - - - - - 16.1 1009.7 2.2
04/11:00pm SW 8 15 - - - - - - - 16.6 1010.1 2.2
04/10:30pm SW 9 14 - - - - - - - 17.1 1010.2 2.2
04/10:00pm SW 10 16 - - - - - - - 17.2 1010.1 2.2
04/09:30pm SW 8 14 - - - - - - - 17.2 1009.5 2.2
04/09:00pm SSW 11 17 - - - - - - Recent precip. 17.2 1009.2 2.2
04/08:30pm SSW 11 20 - - - - - - - 17.3 1008.9 2.2
04/08:00pm SSW 9 15 - - - - - - - 17.2 1008.9 2.0
04/07:30pm SW 10 16 - - - - - - - 17.4 1008.9 2.0
04/07:00pm SW 11 16 - - - - - - - 17.5 1008.4 2.0
04/06:30pm SW 13 23 - - - - - - - 17.7 1007.7 2.0
04/06:00pm SW 13 20 - - - - - - Recent precip. 18.0 1006.7 2.0
04/05:30pm WSW 17 28 - - - - - - - 18.0 1005.7 1.6
04/05:00pm WSW 20 30 - - - - - - - 18.3 1004.4 0.4
04/04:54pm WSW 19 30 - - - - - - - 18.7 1004.5 0.2
04/04:30pm SW 15 26 - - - - - - - 20.3 1002.4 0.0
04/04:00pm SW 15 22 - - - - - - - 21.9 1003.2 0.0
04/03:30pm SW 18 29 - - - - - - - 23.5 1002.5 0.0
04/03:05pm W 21 37 - - - - - - - 28.4 1001.5 0.0
04/03:03pm WNW 19 32 - - - - - - - 32.0 1001.2 0.0
04/03:00pm NW 18 29 - - - - - - - 41.0 1000.1 0.0
04/02:30pm NW 19 29 - - - - - - - 41.9 998.9 0.0
04/02:00pm NW 24 38 - - - - - - - 43.1 999.4 0.0
04/01:56pm NNW 23 38 - - - - - - - 43.1 999.5 0.0
04/01:53pm NNW 21 38 - - - - - - - 42.8 999.5 0.0
04/01:30pm NW 20 33 - - - - - - - 42.7 1000.1 0.0
04/01:00pm NNW 20 31 - - - - - - - 43.3 1000.7 0.0
04/12:31pm NNW 19 29 - - - - - - - 43.0 1001.6 0.0
04/12:30pm NNW 19 28 - - - - - - - 43.5 1001.6 0.0
04/12:00pm NNW 21 31 - - - - - - - 43.4 1002.8 0.0
04/11:30am NNW 22 34 - - - - - - - 41.3 1003.6 0.0
04/11:00am N 21 33 - - - - - - - 42.1 1004.1 0.0
04/10:30am N 19 31 - - - - - - - 41.2 1004.6 0.0
04/10:00am N 17 29 - - - - - - - 39.2 1005.4 0.0
04/09:32am N 19 29 - - - - - - - 38.8 1005.9 0.0
04/09:30am N 20 29 - - - - - - - 38.1 1005.9 0.0
04/09:00am N 20 30 - - - - - - - 37.0 1006.7 0.0
04/08:30am N 20 33 - - - - - - - 33.8 1007.2 0.0
04/08:10am N 19 29 - - - - - - - 33.8 1007.7 0.0
04/08:00am N 19 28 - - - - - - - 33.1 1007.8 0.0
04/07:36am N 17 27 - - - - - - - 30.2 1008.3 0.0
04/07:30am N 17 24 - - - - - - - 29.4 1008.4 0.0
04/07:20am NNE 15 25 - - - - - - - 29.5 1008.7 0.0
04/07:00am NNE 17 25 - - - - - - - 28.5 1009.0 0.0
04/06:30am NNE 18 25 - - - - - - - 25.4 1009.4 0.0
04/06:16am NNE 17 27 - - - - - - - 24.4 1009.7 0.0
04/06:00am NNE 18 24 - - - - - - - 23.7 1009.7 0.0
04/05:37am NNE 16 26 - - - - - - - 22.2 1010.0 0.0
04/05:30am NNE 17 25 - - - - - - - 21.8 1010.1 0.0
04/05:00am NNE 15 23 - - - - - - - 20.3 1010.2 0.0
04/04:30am NNE 15 21 - - - - - - - 18.9 1010.4 0.0
04/04:00am NNE 13 21 - - - - - - - 18.3 1010.5 0.0
04/03:30am NNE 12 19 - - - - - - - 17.4 1011.0 0.0
04/03:00am NNE 13 17 - - - - - - - 17.6 1011.3 0.0
04/02:30am NNE 12 18 - - - - - - - 17.8 1011.4 0.0
04/02:00am NNE 13 19 - - - - - - - 17.8 1011.5 0.0
04/01:30am NE 12 17 - - - - - - - 16.9 1011.7 0.0
04/01:00am NE 11 17 - - - - - - - 16.3 1011.8 0.0
04/12:30am NE 9 13 - - - - - - - 16.3 1013.0 0.0
04/12:00am NE 10 14 - - - - - - - 17.2 1013.3 0.0
 
Date/Time
WST
Wind Sea
Height
m
Swell Vis
km
Cloud Weather Temp
°C
Press
MSL
hPa
Rain since
9am
mm
Dir  Spd
kts
Gust
kts
Height
m
Period
s
Dir
03/11:30pm NE 9 14 - - - - - - - 17.4 1013.7 0.0
03/11:00pm NE 10 15 - - - - - - - 18.1 1014.2 0.0
03/10:30pm ENE 10 16 - - - - - - - 18.9 1014.7 0.0
03/10:00pm ENE 10 15 - - - - - - - 19.0 1015.1 0.0
03/09:30pm ENE 10 16 - - - - - - - 19.5 1015.4 0.0
03/09:00pm ENE 11 19 - - - - - - - 19.7 1015.5 0.0
03/08:30pm ENE 13 20 - - - - - - - 19.6 1015.7 0.0
03/08:00pm ENE 12 18 - - - - - - - 19.8 1015.7 0.0
03/07:30pm E 12 18 - - - - - - - 20.1 1015.7 0.0
03/07:00pm E 12 17 - - - - - - - 20.6 1015.6 0.0
03/06:30pm E 12 18 - - - - - - - 21.0 1015.5 0.0
03/06:00pm E 12 19 - - - - - - - 22.1 1015.3 0.0
03/05:30pm E 12 18 - - - - - - - 23.2 1015.2 0.0
03/05:00pm E 12 18 - - - - - - - 24.2 1015.2 0.0
03/04:30pm E 13 20 - - - - - - - 24.5 1015.1 0.0
03/04:00pm E 12 18 - - - - - - - 23.9 1015.1 0.0
03/03:30pm ESE 14 18 - - - - - - - 23.6 1015.3 0.0
03/03:00pm ESE 14 20 - - - - - - - 24.3 1015.4 0.0
03/02:30pm ESE 13 19 - - - - - - - 24.9 1015.8 0.0
03/02:00pm ESE 13 19 - - - - - - - 24.8 1016.0 0.0
03/01:30pm ESE 12 19 - - - - - - - 25.1 1016.3 0.0
03/01:00pm ESE 13 18 - - - - - - - 25.8 1016.5 0.0
03/12:30pm ESE 14 19 - - - - - - - 25.1 1016.9 0.0
03/12:00pm ESE 12 18 - - - - - - - 25.0 1017.0 0.0
03/11:30am ESE 13 18 - - - - - - - 25.7 1017.3 0.0
03/11:00am ESE 13 17 - - - - - - - 26.5 1017.5 0.0
03/10:30am ESE 11 18 - - - - - - - 25.7 1017.9 0.0
03/10:00am ESE 11 15 - - - - - - - 26.8 1018.0 0.0
03/09:30am ESE 9 15 - - - - - - - 26.5 1018.4 0.0
03/09:00am SE 9 14 - - - - - - - 24.6 1018.8 0.0
03/08:30am ESE 7 10 - - - - - - - 23.7 1019.0 0.0
03/08:00am ENE 6 10 - - - - - - - 25.7 1019.4 0.0
03/07:30am NE 7 10 - - - - - - - 24.0 1019.3 0.0
03/07:00am NNE 8 10 - - - - - - - 21.1 1019.4 0.0
03/06:30am NE 9 13 - - - - - - - 18.6 1019.4 0.0
03/06:00am NE 8 13 - - - - - - - 16.5 1019.5 0.0
03/05:30am NE 8 11 - - - - - - - 14.7 1019.5 0.0
03/05:00am NNE 7 10 - - - - - - - 13.0 1019.2 0.0
03/04:30am NNE 7 9 - - - - - - - 11.5 1019.2 0.0
03/04:00am NE 6 8 - - - - - - - 11.6 1019.3 0.0
03/03:30am ENE 7 8 - - - - - - - 11.8 1019.3 0.0
03/03:00am NNE 5 7 - - - - - - - 11.3 1019.2 0.0
03/02:30am NE 5 6 - - - - - - - 11.8 1019.5 0.0
03/02:00am NE 5 6 - - - - - - - 12.9 1019.4 0.0
03/01:30am ENE 5 6 - - - - - - - 13.9 1019.5 0.0
03/01:00am E 5 8 - - - - - - - 14.6 1019.7 0.0
03/12:30am E 6 9 - - - - - - - 14.9 1019.9 0.0
03/12:00am E 6 8 - - - - - - - 14.9 1020.1 0.0
 
Date/Time
WST
Wind Sea
Height
m
Swell Vis
km
Cloud Weather Temp
°C
Press
MSL
hPa
Rain since
9am
mm
Dir  Spd
kts
Gust
kts
Height
m
Period
s
Dir
02/11:30pm E 6 8 - - - - - - - 15.0 1020.4 0.0
02/11:00pm E 7 9 - - - - - - - 15.5 1020.9 0.0
02/10:30pm ESE 6 9 - - - - - - - 15.5 1021.1 0.0
02/10:00pm ESE 7 10 - - - - - - - 15.6 1021.2 0.0
02/09:30pm ESE 7 10 - - - - - - - 15.7 1021.5 0.0
02/09:00pm ESE 7 9 - - - - - - - 15.6 1021.5 0.0
02/08:30pm E 7 12 - - - - - - - 15.8 1021.5 0.0
02/08:00pm E 7 13 - - - - - - - 15.8 1021.4 0.0
02/07:30pm ESE 6 9 - - - - - - - 16.1 1021.6 0.0
02/07:00pm ESE 8 14 - - - - - - - 16.1 1021.4 0.0
02/06:30pm ESE 9 13 - - - - - - - 16.2 1021.2 0.0
02/06:00pm ESE 8 13 - - - - - - - 16.8 1021.1 0.0
02/05:30pm ESE 11 16 - - - - - - - 17.6 1020.9 0.0
02/05:00pm ESE 11 17 - - - - - - - 18.0 1020.7 0.0
02/04:30pm ESE 12 18 - - - - - - - 18.2 1020.6 0.0
02/04:00pm ESE 12 19 - - - - - - - 18.6 1020.7 0.0
02/03:30pm ESE 13 17 - - - - - - - 19.2 1020.9 0.0
02/03:00pm ESE 12 18 - - - - - - - 19.9 1021.1 0.0
02/02:30pm ESE 13 18 - - - - - - - 19.9 1021.2 0.0
02/02:00pm ESE 13 18 - - - - - - - 20.7 1021.5 0.0
02/01:30pm ESE 13 19 - - - - - - - 20.4 1021.8 0.0
02/01:00pm ESE 13 18 - - - - - - - 20.1 1022.2 0.0
02/12:30pm ESE 13 19 - - - - - - - 20.1 1022.5 0.0
02/12:00pm ESE 13 19 - - - - - - - 20.3 1022.7 0.0
02/11:30am ESE 14 20 - - - - - - - 20.5 1023.0 0.0

Other formats

Comma delimited format used in spreadsheet applications
http://www.bom.gov.au/fwo/IDW60701/IDW60701.94647.axf

JavaScript Object Notation format (JSON) in row-major order
http://www.bom.gov.au/fwo/IDW60701/IDW60701.94647.json

Data quality

Most of these data are generated automatically and are frequently updated. Quality checks on data are not normally performed. It is possible for incorrect values to appear. Refer to information at About Latest Weather Observations and please check the disclaimer before using these data.